createdAt,value
2017-09-12T00:00:21.704Z,99.99
2017-09-12T00:01:21.725Z,99.99
2017-09-12T00:02:21.850Z,99.99
2017-09-12T00:03:22.550Z,99.99
2017-09-12T00:04:22.694Z,99.99
2017-09-12T00:05:22.158Z,99.99
2017-09-12T00:06:22.747Z,99.99
2017-09-12T00:07:22.245Z,99.99
2017-09-12T00:08:22.267Z,99.99
2017-09-12T00:09:22.940Z,99.99
2017-09-12T00:10:22.948Z,99.99
2017-09-12T00:11:22.995Z,99.99
2017-09-12T00:12:23.387Z,99.99
2017-09-12T00:13:23.411Z,99.99
2017-09-12T00:14:23.706Z,99.99
2017-09-12T00:15:24.096Z,99.99
2017-09-12T00:16:24.107Z,99.99
2017-09-12T00:17:24.156Z,99.99
2017-09-12T00:18:24.165Z,99.99
2017-09-12T00:19:24.560Z,99.99
2017-09-12T00:20:24.565Z,99.99
2017-09-12T00:21:24.594Z,99.99
2017-09-12T00:22:24.622Z,99.99
2017-09-12T00:23:24.652Z,99.99
2017-09-12T00:24:24.705Z,99.99
2017-09-12T00:25:24.729Z,99.99
2017-09-12T00:26:24.415Z,99.99
2017-09-12T00:27:24.790Z,99.99
2017-09-12T00:28:24.822Z,99.99
2017-09-12T00:29:24.844Z,99.99
2017-09-12T00:30:24.897Z,99.99
2017-09-12T00:31:25.279Z,99.99
2017-09-12T00:32:25.305Z,99.99
2017-09-12T00:33:25.017Z,99.99
2017-09-12T00:34:25.059Z,99.99
2017-09-12T00:35:25.412Z,99.99
2017-09-12T00:36:25.432Z,99.99
2017-09-12T00:37:25.490Z,99.99
2017-09-12T00:38:25.936Z,99.99
2017-09-12T00:39:25.967Z,99.99
2017-09-12T00:40:25.998Z,99.99
2017-09-12T00:41:25.701Z,99.99
2017-09-12T00:42:26.057Z,99.99
2017-09-12T00:43:26.401Z,99.99
2017-09-12T00:44:26.426Z,99.99
2017-09-12T00:45:26.458Z,99.99
2017-09-12T00:46:26.496Z,99.99
2017-09-12T00:47:26.192Z,99.99
2017-09-12T00:48:26.231Z,99.99
2017-09-12T00:49:26.281Z,99.99
2017-09-12T00:50:26.635Z,99.99
2017-09-12T00:51:26.648Z,99.99
2017-09-12T00:52:26.368Z,99.99
2017-09-12T00:53:26.441Z,99.99
2017-09-12T00:54:26.483Z,99.99
2017-09-12T00:55:26.845Z,99.99
2017-09-12T00:56:26.871Z,99.99
2017-09-12T00:57:26.905Z,99.99
2017-09-12T00:58:26.936Z,99.99
2017-09-12T00:59:26.636Z,99.99
2017-09-12T01:00:26.994Z,99.99
2017-09-12T01:01:27.027Z,99.99
2017-09-12T01:02:27.083Z,99.99
2017-09-12T01:03:27.126Z,99.99
2017-09-12T01:04:27.236Z,99.99
2017-09-12T01:05:26.856Z,99.99
2017-09-12T01:06:27.261Z,99.99
2017-09-12T01:07:27.297Z,99.99
2017-09-12T01:08:26.993Z,99.99
2017-09-12T01:09:27.043Z,99.99
2017-09-12T01:10:27.054Z,99.99
2017-09-12T01:11:27.091Z,99.99
2017-09-12T01:12:27.447Z,99.99
2017-09-12T01:13:27.501Z,99.99
2017-09-12T01:14:27.855Z,99.99
2017-09-12T01:15:28.206Z,99.99
2017-09-12T01:16:27.898Z,99.99
2017-09-12T01:17:28.534Z,99.99
2017-09-12T01:18:28.236Z,99.99
2017-09-12T01:19:28.266Z,99.99
2017-09-12T01:20:28.923Z,99.99
2017-09-12T01:21:28.925Z,99.99
2017-09-12T01:22:28.640Z,99.99
2017-09-12T01:23:29.331Z,99.99
2017-09-12T01:24:29.361Z,99.99
2017-09-12T01:25:29.393Z,99.99
2017-09-12T01:26:29.425Z,99.99
2017-09-12T01:27:29.794Z,99.99
2017-09-12T01:28:29.485Z,99.99
2017-09-12T01:29:29.842Z,99.99
2017-09-12T01:30:29.925Z,99.99
2017-09-12T01:31:29.957Z,99.99
2017-09-12T01:32:30.002Z,99.99
2017-09-12T01:33:30.301Z,99.99
2017-09-12T01:34:30.657Z,99.99
2017-09-12T01:35:30.695Z,99.99
2017-09-12T01:36:30.725Z,99.99
2017-09-12T01:37:30.754Z,99.99
2017-09-12T01:38:30.818Z,99.99
2017-09-12T01:39:30.500Z,99.99
2017-09-12T01:40:31.138Z,99.99
2017-09-12T01:41:30.886Z,99.99
2017-09-12T01:42:31.203Z,99.99
2017-09-12T01:43:31.538Z,99.99
2017-09-12T01:44:31.249Z,99.99
2017-09-12T01:45:31.599Z,99.99
2017-09-12T01:46:31.627Z,99.99
2017-09-12T01:47:31.663Z,99.99
2017-09-12T01:48:31.702Z,99.99
2017-09-12T01:49:32.089Z,99.99
2017-09-12T01:50:32.426Z,99.99
2017-09-12T01:51:32.455Z,99.99
2017-09-12T01:52:32.520Z,99.99
2017-09-12T01:53:32.540Z,99.99
2017-09-12T01:54:32.223Z,99.99
2017-09-12T01:55:32.249Z,99.99
2017-09-12T01:56:32.610Z,99.99
2017-09-12T01:57:32.661Z,99.99
2017-09-12T01:58:32.357Z,99.99
2017-09-12T01:59:32.705Z,99.99
2017-09-12T02:00:33.081Z,99.99
2017-09-12T02:01:33.491Z,99.99
2017-09-12T02:02:34.090Z,99.99
2017-09-12T02:03:33.849Z,99.99
2017-09-12T02:04:33.935Z,99.99
2017-09-12T02:05:33.906Z,99.99
2017-09-12T02:06:33.932Z,99.99
2017-09-12T02:07:33.638Z,99.99
2017-09-12T02:08:34.002Z,99.99
2017-09-12T02:09:34.029Z,99.99
2017-09-12T02:10:34.027Z,99.99
2017-09-12T02:11:34.108Z,99.99
2017-09-12T02:12:34.425Z,99.99
2017-09-12T02:13:34.439Z,99.99
2017-09-12T02:14:34.144Z,99.99
2017-09-12T02:15:34.200Z,99.99
2017-09-12T02:16:34.560Z,99.99
2017-09-12T02:17:34.595Z,99.99
2017-09-12T02:18:34.637Z,99.99
2017-09-12T02:19:34.668Z,99.99
2017-09-12T02:20:34.703Z,99.99
2017-09-12T02:21:34.730Z,99.99
2017-09-12T02:22:35.045Z,99.99
2017-09-12T02:23:35.088Z,99.99
2017-09-12T02:24:35.465Z,99.99
2017-09-12T02:25:35.507Z,99.99
2017-09-12T02:26:35.206Z,99.99
2017-09-12T02:27:35.701Z,99.99
2017-09-12T02:28:35.729Z,99.99
2017-09-12T02:29:35.754Z,99.99
2017-09-12T02:30:35.791Z,99.99
2017-09-12T02:31:35.498Z,99.99
2017-09-12T02:32:35.850Z,99.99
2017-09-12T02:33:35.854Z,99.99
2017-09-12T02:34:36.244Z,99.99
2017-09-12T02:35:36.250Z,99.99
2017-09-12T02:36:36.302Z,99.99
2017-09-12T02:37:36.374Z,99.99
2017-09-12T02:38:36.402Z,99.99
2017-09-12T02:39:36.446Z,99.99
2017-09-12T02:40:36.147Z,99.99
2017-09-12T02:41:36.513Z,99.99
2017-09-12T02:42:36.538Z,99.99
2017-09-12T02:43:36.575Z,99.99
2017-09-12T02:44:36.579Z,99.99
2017-09-12T02:45:36.613Z,99.99
2017-09-12T02:46:36.641Z,99.99
2017-09-12T02:47:36.672Z,99.99
2017-09-12T02:48:36.704Z,99.99
2017-09-12T02:49:36.765Z,99.99
2017-09-12T02:50:36.440Z,99.99
2017-09-12T02:51:36.801Z,99.99
2017-09-12T02:52:36.835Z,99.99
2017-09-12T02:53:37.170Z,99.99
2017-09-12T02:54:37.203Z,99.99
2017-09-12T02:55:36.907Z,99.99
2017-09-12T02:56:37.546Z,99.99
2017-09-12T02:57:37.244Z,99.99
2017-09-12T02:58:37.879Z,99.99
2017-09-12T02:59:37.580Z,99.99
2017-09-12T03:00:37.940Z,99.99
2017-09-12T03:01:37.638Z,99.99
2017-09-12T03:02:38.246Z,99.99
2017-09-12T03:03:38.278Z,99.99
2017-09-12T03:04:38.371Z,99.99
2017-09-12T03:05:38.338Z,99.99
2017-09-12T03:06:38.408Z,99.99
2017-09-12T03:07:38.398Z,99.99
2017-09-12T03:08:38.447Z,99.99
2017-09-12T03:09:38.466Z,99.99
2017-09-12T03:10:38.514Z,99.99
2017-09-12T03:11:38.887Z,99.99
2017-09-12T03:12:38.583Z,99.99
2017-09-12T03:13:38.944Z,99.99
2017-09-12T03:14:38.648Z,99.99
2017-09-12T03:15:39.055Z,99.99
2017-09-12T03:16:39.413Z,99.99
2017-09-12T03:17:39.440Z,99.99
2017-09-12T03:18:39.458Z,99.99
2017-09-12T03:19:39.513Z,99.99
2017-09-12T03:20:39.909Z,99.99
2017-09-12T03:21:39.920Z,99.99
2017-09-12T03:22:39.945Z,99.99
2017-09-12T03:23:39.977Z,99.99
2017-09-12T03:24:40.054Z,99.99
2017-09-12T03:25:40.072Z,99.99
2017-09-12T03:26:40.411Z,99.99
2017-09-12T03:27:40.768Z,99.99
2017-09-12T03:28:40.831Z,99.99
2017-09-12T03:29:40.543Z,99.99
2017-09-12T03:30:40.872Z,99.99
2017-09-12T03:31:41.566Z,99.99
2017-09-12T03:32:41.607Z,99.99
2017-09-12T03:33:41.616Z,99.99
2017-09-12T03:34:41.644Z,99.99
2017-09-12T03:35:41.673Z,99.99
2017-09-12T03:36:41.711Z,99.99
2017-09-12T03:37:42.056Z,99.99
2017-09-12T03:38:42.108Z,99.99
2017-09-12T03:39:41.784Z,99.99
2017-09-12T03:40:42.450Z,99.99
2017-09-12T03:41:42.150Z,99.99
2017-09-12T03:42:42.513Z,99.99
2017-09-12T03:43:42.556Z,99.99
2017-09-12T03:44:42.574Z,99.99
2017-09-12T03:45:42.615Z,99.99
2017-09-12T03:46:42.664Z,99.99
2017-09-12T03:47:42.656Z,99.99
2017-09-12T03:48:42.689Z,99.99
2017-09-12T03:49:42.716Z,99.99
2017-09-12T03:50:43.018Z,99.99
2017-09-12T03:51:43.048Z,99.99
2017-09-12T03:52:43.074Z,99.99
2017-09-12T03:53:43.420Z,99.99
2017-09-12T03:54:43.159Z,99.99
2017-09-12T03:55:43.513Z,99.99
2017-09-12T03:56:44.258Z,99.99
2017-09-12T03:57:44.288Z,99.99
2017-09-12T03:58:43.991Z,99.99
2017-09-12T03:59:44.349Z,99.99
2017-09-12T04:00:44.047Z,99.99
2017-09-12T04:01:44.412Z,99.99
2017-09-12T04:02:44.454Z,99.99
2017-09-12T04:03:44.467Z,99.99
2017-09-12T04:04:44.545Z,99.99
2017-09-12T04:05:44.528Z,99.99
2017-09-12T04:06:44.559Z,99.99
2017-09-12T04:07:44.963Z,99.99
2017-09-12T04:08:45.016Z,99.99
2017-09-12T04:09:45.052Z,99.99
2017-09-12T04:10:44.722Z,99.99
2017-09-12T04:11:45.127Z,99.99
2017-09-12T04:12:45.460Z,99.99
2017-09-12T04:13:45.472Z,99.99
2017-09-12T04:14:45.550Z,99.99
2017-09-12T04:15:45.535Z,99.99
2017-09-12T04:16:45.563Z,99.99
2017-09-12T04:17:45.636Z,99.99
2017-09-12T04:18:45.634Z,99.99
2017-09-12T04:19:45.972Z,99.99
2017-09-12T04:20:45.686Z,99.99
2017-09-12T04:21:46.057Z,99.99
2017-09-12T04:22:46.360Z,99.99
2017-09-12T04:23:46.403Z,99.99
2017-09-12T04:24:46.097Z,99.99
2017-09-12T04:25:46.769Z,99.99
2017-09-12T04:26:46.798Z,99.99
2017-09-12T04:27:46.856Z,99.99
2017-09-12T04:28:46.861Z,99.99
2017-09-12T04:29:46.918Z,99.99
2017-09-12T04:30:46.926Z,99.99
2017-09-12T04:31:47.579Z,99.99
2017-09-12T04:32:47.643Z,99.99
2017-09-12T04:33:47.626Z,99.99
2017-09-12T04:34:48.278Z,99.99
2017-09-12T04:35:47.955Z,99.99
2017-09-12T04:36:48.333Z,99.99
2017-09-12T04:37:48.015Z,99.99
2017-09-12T04:38:48.385Z,99.99
2017-09-12T04:39:48.420Z,99.99
2017-09-12T04:40:48.746Z,99.99
2017-09-12T04:41:48.458Z,99.99
2017-09-12T04:42:48.832Z,99.99
2017-09-12T04:43:48.866Z,99.99
2017-09-12T04:44:48.875Z,99.99
2017-09-12T04:45:48.867Z,99.99
2017-09-12T04:46:49.225Z,99.99
2017-09-12T04:47:49.261Z,99.99
2017-09-12T04:48:49.286Z,99.99
2017-09-12T04:49:49.051Z,99.99
2017-09-12T04:50:49.414Z,99.99
2017-09-12T04:51:49.435Z,99.99
2017-09-12T04:52:49.444Z,99.99
2017-09-12T04:53:49.551Z,99.99
2017-09-12T04:54:50.170Z,99.99
2017-09-12T04:55:50.199Z,99.99
2017-09-12T04:56:50.498Z,99.99
2017-09-12T04:57:50.198Z,99.99
2017-09-12T04:58:50.268Z,99.99
2017-09-12T04:59:50.594Z,99.99
2017-09-12T05:00:50.621Z,99.99
2017-09-12T05:01:50.319Z,99.99
2017-09-12T05:02:50.694Z,99.99
2017-09-12T05:03:50.425Z,99.99
2017-09-12T05:04:51.062Z,99.99
2017-09-12T05:05:50.759Z,99.99
2017-09-12T05:06:50.772Z,99.99
2017-09-12T05:07:51.137Z,99.99
2017-09-12T05:08:51.183Z,99.99
2017-09-12T05:09:51.227Z,99.99
2017-09-12T05:10:51.262Z,99.99
2017-09-12T05:11:50.996Z,99.99
2017-09-12T05:12:50.989Z,99.99
2017-09-12T05:13:51.019Z,99.99
2017-09-12T05:14:51.401Z,99.99
2017-09-12T05:15:51.430Z,99.99
2017-09-12T05:16:51.451Z,99.99
2017-09-12T05:17:51.511Z,99.99
2017-09-12T05:18:51.522Z,99.99
2017-09-12T05:19:51.229Z,99.99
2017-09-12T05:20:51.225Z,99.99
2017-09-12T05:21:51.634Z,99.99
2017-09-12T05:22:51.628Z,99.99
2017-09-12T05:23:51.673Z,99.99
2017-09-12T05:24:51.395Z,99.99
2017-09-12T05:25:52.209Z,99.99
2017-09-12T05:26:52.290Z,99.99
2017-09-12T05:27:52.301Z,99.99
2017-09-12T05:28:52.649Z,99.99
2017-09-12T05:29:52.967Z,99.99
2017-09-12T05:30:52.996Z,99.99
2017-09-12T05:31:53.049Z,99.99
2017-09-12T05:32:53.382Z,99.99
2017-09-12T05:33:53.085Z,99.99
2017-09-12T05:34:53.743Z,99.99
2017-09-12T05:35:53.845Z,99.99
2017-09-12T05:36:54.174Z,99.99
2017-09-12T05:37:54.202Z,99.99
2017-09-12T05:38:54.209Z,99.99
2017-09-12T05:39:54.269Z,99.99
2017-09-12T05:40:54.280Z,99.99
2017-09-12T05:41:53.975Z,99.99
2017-09-12T05:42:54.337Z,99.99
2017-09-12T05:43:54.099Z,99.99
2017-09-12T05:44:54.425Z,99.99
2017-09-12T05:45:54.746Z,99.99
2017-09-12T05:46:54.788Z,99.99
2017-09-12T05:47:54.484Z,99.99
2017-09-12T05:48:54.516Z,99.33
2017-09-12T05:49:55.179Z,99.43
2017-09-12T05:50:55.211Z,98.28
2017-09-12T05:51:54.947Z,98.13
2017-09-12T05:52:55.294Z,97.85
2017-09-12T05:53:55.674Z,97.66
2017-09-12T05:54:55.679Z,97.37
2017-09-12T05:55:55.708Z,97.85
2017-09-12T05:56:55.760Z,97.85
2017-09-12T05:57:55.773Z,98.04
2017-09-12T05:58:55.826Z,98.04
2017-09-12T05:59:55.883Z,97.94
2017-09-12T06:00:55.555Z,97.56
2017-09-12T06:01:55.917Z,97.18
2017-09-12T06:02:56.851Z,96.7
2017-09-12T06:03:56.840Z,97.08
2017-09-12T06:04:57.192Z,96.8
2017-09-12T06:05:57.004Z,96.22
2017-09-12T06:06:57.397Z,96.56
2017-09-12T06:07:57.430Z,96.84
2017-09-12T06:08:57.485Z,95.89
2017-09-12T06:09:57.482Z,95.22
2017-09-12T06:10:57.502Z,95.61
2017-09-12T06:11:57.554Z,95.32
2017-09-12T06:12:57.579Z,95.89
2017-09-12T06:13:57.611Z,95.61
2017-09-12T06:14:57.643Z,95.12
2017-09-12T06:15:57.683Z,95.32
2017-09-12T06:16:57.704Z,95.32
2017-09-12T06:17:57.751Z,95.22
2017-09-12T06:18:57.811Z,95.32
2017-09-12T06:19:57.812Z,95.03
2017-09-12T06:20:57.856Z,94.93
2017-09-12T06:21:57.550Z,95.32
2017-09-12T06:22:57.931Z,95.03
2017-09-12T06:23:57.947Z,94.74
2017-09-12T06:24:57.654Z,94.26
2017-09-12T06:25:58.011Z,95.22
2017-09-12T06:26:58.020Z,94.84
2017-09-12T06:27:58.078Z,95.32
2017-09-12T06:28:58.452Z,95.03
2017-09-12T06:29:58.781Z,95.22
2017-09-12T06:30:58.476Z,95.03
2017-09-12T06:31:59.182Z,95.61
2017-09-12T06:32:59.580Z,95.51
2017-09-12T06:33:59.294Z,95.32
2017-09-12T06:34:59.305Z,94.74
2017-09-12T06:35:59.357Z,94.36
2017-09-12T06:37:00.068Z,93.21
2017-09-12T06:38:00.094Z,90.23
2017-09-12T06:39:00.106Z,87.45
2017-09-12T06:40:00.118Z,83.31
2017-09-12T06:41:00.558Z,81.82
2017-09-12T06:42:00.565Z,80.8
2017-09-12T06:43:00.301Z,78.78
2017-09-12T06:44:00.810Z,78.88
2017-09-12T06:45:01.327Z,80.13
2017-09-12T06:46:01.382Z,80.86
2017-09-12T06:47:01.380Z,81.4
2017-09-12T06:48:01.381Z,81.87
2017-09-12T06:49:01.422Z,82.89
2017-09-12T06:50:01.468Z,84.23
2017-09-12T06:51:01.177Z,84.58
2017-09-12T06:52:01.512Z,85.01
2017-09-12T06:53:01.570Z,86.21
2017-09-12T06:54:01.268Z,86.41
2017-09-12T06:55:01.641Z,87.08
2017-09-12T06:56:01.667Z,87.74
2017-09-12T06:57:01.679Z,87.55
2017-09-12T06:58:01.711Z,87.84
2017-09-12T06:59:01.745Z,88.13
2017-09-12T07:00:01.776Z,88.7
2017-09-12T07:01:01.492Z,88.23
2017-09-12T07:02:01.553Z,88.13
2017-09-12T07:03:01.906Z,88.42
2017-09-12T07:04:01.909Z,88.23
2017-09-12T07:05:01.623Z,87.94
2017-09-12T07:06:01.666Z,87.65
2017-09-12T07:07:02.336Z,87.55
2017-09-12T07:08:02.389Z,88.13
2017-09-12T07:09:02.115Z,88.13
2017-09-12T07:10:02.752Z,87.65
2017-09-12T07:11:03.152Z,87.84
2017-09-12T07:12:03.139Z,88.03
2017-09-12T07:13:02.842Z,87.65
2017-09-12T07:14:02.890Z,87.74
2017-09-12T07:15:02.931Z,87.74
2017-09-12T07:16:03.014Z,87.55
2017-09-12T07:17:03.309Z,88.51
2017-09-12T07:18:03.677Z,88.23
2017-09-12T07:19:03.391Z,88.51
2017-09-12T07:20:03.826Z,87.65
2017-09-12T07:21:03.525Z,87.65
2017-09-12T07:22:03.906Z,88.03
2017-09-12T07:23:03.930Z,87.74
2017-09-12T07:24:03.975Z,88.13
2017-09-12T07:25:04.027Z,87.74
2017-09-12T07:26:04.032Z,87.31
2017-09-12T07:27:04.039Z,86.93
2017-09-12T07:28:04.084Z,87.02
2017-09-12T07:29:04.123Z,86.93
2017-09-12T07:30:04.106Z,87.41
2017-09-12T07:31:03.901Z,87.12
2017-09-12T07:32:04.333Z,87.31
2017-09-12T07:33:04.334Z,87.6
2017-09-12T07:34:04.430Z,87.02
2017-09-12T07:35:05.585Z,86.74
2017-09-12T07:36:05.240Z,87.21
2017-09-12T07:37:04.944Z,86.93
2017-09-12T07:38:05.636Z,87.41
2017-09-12T07:39:05.692Z,87.21
2017-09-12T07:40:05.747Z,87.7
2017-09-12T07:41:05.793Z,87.7
2017-09-12T07:42:05.531Z,87.7
2017-09-12T07:43:05.846Z,87.02
2017-09-12T07:44:05.885Z,86.45
2017-09-12T07:45:05.603Z,86.83
2017-09-12T07:46:06.241Z,86.64
2017-09-12T07:47:06.005Z,87.21
2017-09-12T07:48:05.713Z,87.31
2017-09-12T07:49:06.305Z,87.21
2017-09-12T07:50:06.198Z,87.41
2017-09-12T07:51:05.905Z,87.02
2017-09-12T07:52:06.298Z,87.79
2017-09-12T07:53:06.714Z,87.7
2017-09-12T07:54:06.727Z,87.6
2017-09-12T07:55:06.804Z,87.7
2017-09-12T07:56:06.771Z,87.41
2017-09-12T07:57:06.474Z,87.12
2017-09-12T07:58:06.845Z,87.21
2017-09-12T07:59:06.924Z,87.02
2017-09-12T08:00:07.718Z,87.21
2017-09-12T08:01:06.654Z,87.21
2017-09-12T08:02:06.657Z,87.21
2017-09-12T08:03:07.747Z,86.93
2017-09-12T08:04:07.061Z,86.83
2017-09-12T08:05:07.945Z,87.31
2017-09-12T08:06:07.688Z,87.26
2017-09-12T08:07:08.051Z,87.07
2017-09-12T08:08:08.135Z,86.78
2017-09-12T08:09:08.514Z,86.78
2017-09-12T08:10:08.247Z,86.3
2017-09-12T08:11:08.616Z,86.58
2017-09-12T08:12:08.618Z,86.3
2017-09-12T08:13:09.066Z,86.49
2017-09-12T08:14:08.764Z,86.4
2017-09-12T08:15:08.758Z,86.3
2017-09-12T08:16:09.128Z,86.11
2017-09-12T08:17:09.449Z,85.92
2017-09-12T08:18:09.598Z,85.58
2017-09-12T08:19:09.507Z,85.1
2017-09-12T08:20:08.983Z,84.81
2017-09-12T08:21:09.709Z,84.52
2017-09-12T08:22:09.730Z,83.89
2017-09-12T08:23:10.064Z,83.31
2017-09-12T08:24:10.177Z,82.3
2017-09-12T08:25:09.936Z,81.53
2017-09-12T08:26:10.288Z,81.38
2017-09-12T08:27:10.357Z,80.61
2017-09-12T08:28:10.770Z,79.6
2017-09-12T08:29:10.470Z,78.67
2017-09-12T08:30:10.625Z,77.46
2017-09-12T08:31:11.258Z,74.84
2017-09-12T08:32:11.388Z,74.01
2017-09-12T08:33:11.384Z,71.86
2017-09-12T08:34:11.456Z,69.42
2017-09-12T08:35:11.472Z,66.43
2017-09-12T08:36:11.482Z,63.53
2017-09-12T08:37:11.545Z,62.98
2017-09-12T08:38:11.645Z,63.34
2017-09-12T08:39:11.827Z,63.62
2017-09-12T08:40:11.810Z,63.4
2017-09-12T08:41:12.493Z,64.34
2017-09-12T08:42:12.540Z,65.08
2017-09-12T08:43:12.552Z,65.17
2017-09-12T08:44:12.260Z,65.27
2017-09-12T08:45:12.967Z,64.89
2017-09-12T08:46:13.008Z,64.21
2017-09-12T08:47:13.045Z,64.4
2017-09-12T08:48:12.793Z,63.95
2017-09-12T08:49:12.833Z,63.49
2017-09-12T08:50:13.508Z,62.75
2017-09-12T08:51:13.863Z,61.33
2017-09-12T08:52:13.550Z,59.33
2017-09-12T08:53:14.081Z,56.5
2017-09-12T08:54:14.013Z,55.19
2017-09-12T08:55:14.019Z,55.29
2017-09-12T08:56:14.438Z,55.29
2017-09-12T08:57:14.431Z,53.96
2017-09-12T08:58:14.480Z,54.05
2017-09-12T08:59:14.541Z,54.44
2017-09-12T09:00:14.579Z,54.35
2017-09-12T09:01:14.274Z,53.38
2017-09-12T09:02:14.826Z,53.96
2017-09-12T09:03:14.896Z,54.03
2017-09-12T09:04:14.852Z,55.43
2017-09-12T09:05:14.886Z,57.32
2017-09-12T09:06:14.600Z,59.56
2017-09-12T09:07:15.430Z,61.82
2017-09-12T09:08:15.429Z,62.82
2017-09-12T09:09:15.490Z,63.95
2017-09-12T09:10:15.531Z,65.56
2017-09-12T09:11:15.588Z,66.11
2017-09-12T09:12:15.316Z,66.78
2017-09-12T09:13:15.329Z,66.88
2017-09-12T09:14:15.697Z,66.59
2017-09-12T09:15:15.747Z,66.3
2017-09-12T09:16:15.774Z,64.98
2017-09-12T09:17:16.208Z,64.34
2017-09-12T09:18:16.191Z,63.95
2017-09-12T09:19:15.871Z,63.31
2017-09-12T09:20:16.276Z,63.43
2017-09-12T09:21:16.017Z,63.53
2017-09-12T09:22:16.637Z,62.76
2017-09-12T09:23:16.098Z,61.72
2017-09-12T09:24:16.374Z,60.62
2017-09-12T09:25:16.798Z,58.65
2017-09-12T09:26:16.852Z,56.47
2017-09-12T09:27:16.891Z,53.38
2017-09-12T09:28:16.903Z,52.58
2017-09-12T09:29:16.959Z,50.31
2017-09-12T09:30:17.051Z,48.32
2017-09-12T09:31:17.045Z,47.77
2017-09-12T09:32:17.460Z,46.99
2017-09-12T09:33:17.494Z,46.89
2017-09-12T09:34:17.802Z,46.7
2017-09-12T09:35:17.549Z,47.48
2017-09-12T09:36:17.590Z,46.72
2017-09-12T09:37:17.655Z,45.79
2017-09-12T09:38:18.013Z,44.73
2017-09-12T09:39:17.748Z,44.34
2017-09-12T09:40:18.100Z,44.54
2017-09-12T09:41:18.138Z,44.46
2017-09-12T09:42:18.510Z,44.54
2017-09-12T09:43:18.523Z,45.42
2017-09-12T09:44:18.605Z,45.23
2017-09-12T09:45:18.959Z,45.1
2017-09-12T09:46:18.675Z,45.65
2017-09-12T09:47:18.797Z,46.97
2017-09-12T09:48:18.422Z,48.66
2017-09-12T09:49:18.515Z,49.29
2017-09-12T09:50:18.836Z,50.6
2017-09-12T09:51:18.537Z,51.75
2017-09-12T09:52:18.610Z,53.35
2017-09-12T09:53:18.957Z,53.71
2017-09-12T09:54:18.665Z,54.17
2017-09-12T09:55:19.325Z,55.47
2017-09-12T09:56:19.405Z,56.61
2017-09-12T09:57:19.528Z,57.26
2017-09-12T09:58:19.433Z,58.2
2017-09-12T09:59:19.531Z,58.65
2017-09-12T10:00:19.526Z,59.69
2017-09-12T10:01:19.606Z,60.53
2017-09-12T10:02:19.609Z,60.24
2017-09-12T10:03:19.310Z,61.47
2017-09-12T10:04:19.420Z,62.21
2017-09-12T10:05:19.751Z,62.98
2017-09-12T10:06:20.169Z,63.37
2017-09-12T10:07:20.205Z,63.18
2017-09-12T10:08:19.924Z,63.53
2017-09-12T10:09:20.690Z,63.92
2017-09-12T10:10:20.717Z,64.11
2017-09-12T10:11:20.834Z,64.01
2017-09-12T10:12:21.211Z,64.01
2017-09-12T10:13:21.302Z,63.37
2017-09-12T10:14:21.315Z,63.11
2017-09-12T10:15:21.680Z,62.63
2017-09-12T10:16:21.398Z,61.98
2017-09-12T10:17:21.428Z,61.4
2017-09-12T10:18:21.139Z,61.33
2017-09-12T10:19:21.492Z,60.95
2017-09-12T10:20:21.511Z,60.75
2017-09-12T10:21:21.590Z,60.95
2017-09-12T10:22:21.932Z,60.47
2017-09-12T10:23:22.275Z,60.57
2017-09-12T10:24:22.302Z,61.05
2017-09-12T10:25:22.047Z,61.53
2017-09-12T10:26:22.387Z,61.24
2017-09-12T10:27:22.468Z,61.15
2017-09-12T10:28:22.493Z,60.47
2017-09-12T10:29:22.225Z,60.75
2017-09-12T10:30:22.778Z,61.98
2017-09-12T10:31:22.595Z,63.02
2017-09-12T10:32:22.308Z,63.11
2017-09-12T10:33:22.692Z,63.4
2017-09-12T10:34:22.722Z,63.21
2017-09-12T10:35:23.107Z,63.31
2017-09-12T10:36:23.118Z,63.98
2017-09-12T10:37:23.480Z,64.08
2017-09-12T10:38:23.174Z,63.4
2017-09-12T10:39:23.567Z,63.28
2017-09-12T10:40:23.268Z,63.95
2017-09-12T10:41:23.615Z,64.01
2017-09-12T10:42:23.372Z,63.85
2017-09-12T10:43:24.059Z,62.24
2017-09-12T10:44:24.417Z,60.66
2017-09-12T10:45:24.124Z,57.65
2017-09-12T10:46:24.761Z,54.27
2017-09-12T10:47:24.814Z,51.21
2017-09-12T10:48:24.858Z,48.88
2017-09-12T10:49:24.872Z,46.82
2017-09-12T10:50:24.910Z,46.06
2017-09-12T10:51:25.284Z,45.67
2017-09-12T10:52:24.988Z,45.67
2017-09-12T10:53:25.372Z,46.14
2017-09-12T10:54:25.410Z,46.23
2017-09-12T10:55:25.421Z,45.3
2017-09-12T10:56:25.739Z,44.56
2017-09-12T10:57:25.777Z,44.31
2017-09-12T10:58:25.812Z,43.62
2017-09-12T10:59:25.592Z,44.48
2017-09-12T11:00:25.961Z,44.09
2017-09-12T11:01:26.624Z,43.82
2017-09-12T11:02:26.690Z,45.15
2017-09-12T11:03:27.027Z,46.33
2017-09-12T11:04:27.087Z,48.02
2017-09-12T11:05:27.104Z,49.88
2017-09-12T11:06:26.824Z,51.77
2017-09-12T11:07:27.196Z,53.16
2017-09-12T11:08:27.578Z,54.56
2017-09-12T11:09:27.323Z,56.05
2017-09-12T11:10:28.009Z,57.29
2017-09-12T11:11:28.047Z,57.91
2017-09-12T11:12:28.087Z,59.43
2017-09-12T11:13:27.786Z,60.53
2017-09-12T11:14:27.836Z,61.86
2017-09-12T11:15:28.205Z,63.28
2017-09-12T11:16:28.231Z,63.79
2017-09-12T11:17:27.979Z,65.2
2017-09-12T11:18:28.303Z,66.43
2017-09-12T11:19:28.388Z,67.74
2017-09-12T11:20:28.085Z,69.15
2017-09-12T11:21:28.119Z,70.31
2017-09-12T11:22:28.516Z,70.28
2017-09-12T11:23:28.563Z,70.95
2017-09-12T11:24:29.250Z,71.69
2017-09-12T11:25:29.317Z,72.07
2017-09-12T11:26:29.666Z,72.65
2017-09-12T11:27:29.351Z,72.94
2017-09-12T11:28:29.735Z,73.03
2017-09-12T11:29:30.115Z,72.84
2017-09-12T11:30:29.855Z,72.2
2017-09-12T11:31:30.182Z,71.81
2017-09-12T11:32:30.266Z,71.72
2017-09-12T11:33:30.274Z,71.43
2017-09-12T11:34:29.977Z,71.53
2017-09-12T11:35:30.623Z,71.72
2017-09-12T11:36:30.679Z,71.97
2017-09-12T11:37:30.732Z,72.45
2017-09-12T11:38:31.077Z,72.94
2017-09-12T11:39:31.118Z,72.74
2017-09-12T11:40:30.810Z,73.03
2017-09-12T11:41:31.183Z,72.84
2017-09-12T11:42:31.572Z,72.74
2017-09-12T11:43:31.266Z,71.69
2017-09-12T11:44:32.004Z,71.04
2017-09-12T11:45:32.271Z,70.47
2017-09-12T11:46:32.023Z,70.41
2017-09-12T11:47:32.057Z,69.19
2017-09-12T11:48:31.809Z,68.16
2017-09-12T11:49:32.144Z,67.3
2017-09-12T11:50:32.459Z,67.04
2017-09-12T11:51:32.601Z,66.46
2017-09-12T11:52:32.656Z,66.36
2017-09-12T11:53:32.677Z,66.01
2017-09-12T11:54:32.676Z,66.36
2017-09-12T11:55:32.716Z,66.75
2017-09-12T11:56:33.182Z,67.62
2017-09-12T11:57:33.194Z,67.52
2017-09-12T11:58:33.242Z,67.97
2017-09-12T11:59:33.549Z,68.07
2017-09-12T12:00:33.636Z,68.23
2017-09-12T12:01:33.948Z,69.09
2017-09-12T12:02:34.067Z,69.67
2017-09-12T12:03:34.533Z,70.5
2017-09-12T12:04:34.188Z,70.5
2017-09-12T12:05:34.596Z,70.79
2017-09-12T12:06:34.597Z,70.21
2017-09-12T12:07:34.633Z,70.5
2017-09-12T12:08:34.707Z,70.41
2017-09-12T12:09:34.755Z,70.41
2017-09-12T12:10:35.109Z,70.41
2017-09-12T12:11:35.464Z,70.41
2017-09-12T12:12:35.503Z,70.41
2017-09-12T12:13:35.585Z,70.5
2017-09-12T12:14:35.572Z,70.7
2017-09-12T12:15:35.639Z,70.86
2017-09-12T12:16:35.332Z,71.53
2017-09-12T12:17:35.706Z,71.43
2017-09-12T12:18:35.738Z,71.53
2017-09-12T12:19:36.099Z,71.49
2017-09-12T12:20:36.198Z,72.45
2017-09-12T12:21:36.613Z,72.94
2017-09-12T12:22:36.618Z,73.28
2017-09-12T12:23:36.726Z,73.67
2017-09-12T12:24:36.721Z,74.05
2017-09-12T12:25:36.756Z,74.54
2017-09-12T12:26:36.787Z,74.63
2017-09-12T12:27:37.153Z,74.25
2017-09-12T12:28:37.164Z,74.82
2017-09-12T12:29:37.207Z,74.73
2017-09-12T12:30:37.257Z,74.92
2017-09-12T12:31:37.273Z,75.4
2017-09-12T12:32:37.341Z,75.59
2017-09-12T12:33:37.352Z,75.46
2017-09-12T12:34:37.096Z,75.56
2017-09-12T12:35:37.770Z,75.94
2017-09-12T12:36:37.808Z,76.71
2017-09-12T12:37:37.862Z,77.15
2017-09-12T12:38:37.875Z,78.11
2017-09-12T12:39:37.915Z,79.65
2017-09-12T12:40:37.622Z,81.63
2017-09-12T12:41:37.695Z,83.16
2017-09-12T12:42:38.339Z,85.85
2017-09-12T12:43:38.373Z,87.35
2017-09-12T12:44:38.082Z,89.84
2017-09-12T12:45:38.442Z,90.66
2017-09-12T12:46:38.774Z,92.48
2017-09-12T12:47:38.809Z,93.44
2017-09-12T12:48:38.859Z,94.17
2017-09-12T12:49:38.922Z,94.54
2017-09-12T12:50:38.952Z,95.51
2017-09-12T12:51:38.710Z,96.18
2017-09-12T12:52:38.715Z,96.66
2017-09-12T12:53:38.804Z,96.08
2017-09-12T12:54:38.854Z,96.08